Time;durP1;ratioP1;P1;durP2;ratioP2;P2;SDS_P1;SDS_P2;PMS_P1;PMS_P2;Temp;Humidity;BMP_temperature;BMP_pressure;BME280_temperature;BME280_humidity;BME280_pressure;Samples;Min_cycle;Max_cycle;Signal;HPM_P1;HPM_P2
2023/12/24 00:01:36;;;;;;;0.50;0.30;;;8.00;99.90;;;;;;5008076;28;20598;-77
2023/12/24 00:04:05;;;;;;;0.32;0.20;;;8.00;99.90;;;;;;4999859;28;20026;-77
2023/12/24 00:06:30;;;;;;;0.30;0.20;;;8.00;99.90;;;;;;4977042;28;20030;-77
2023/12/24 00:08:56;;;;;;;0.85;0.28;;;8.00;99.90;;;;;;4998218;28;20036;-76
2023/12/24 00:11:21;;;;;;;1.00;0.30;;;8.00;99.90;;;;;;4993745;28;20023;-77
2023/12/24 00:13:47;;;;;;;0.32;0.17;;;8.10;99.90;;;;;;4987283;28;20018;-76
2023/12/24 00:16:12;;;;;;;0.30;0.30;;;8.10;99.90;;;;;;4983739;28;20500;-76
2023/12/24 00:18:38;;;;;;;1.73;0.40;;;8.00;99.90;;;;;;4993382;28;20374;-77
2023/12/24 00:21:04;;;;;;;0.55;0.30;;;8.00;99.90;;;;;;4998715;28;20470;-76
2023/12/24 00:23:32;;;;;;;0.35;0.28;;;8.00;99.90;;;;;;4995719;28;20161;-76
2023/12/24 00:25:58;;;;;;;0.40;0.40;;;8.00;99.90;;;;;;4998889;28;20033;-76
2023/12/24 00:28:23;;;;;;;1.98;0.40;;;8.10;99.90;;;;;;4992453;28;20038;-77
2023/12/24 00:30:49;;;;;;;0.85;0.30;;;8.10;99.90;;;;;;4993511;28;20030;-77
2023/12/24 00:33:15;;;;;;;0.47;0.25;;;8.00;99.90;;;;;;4989682;28;20085;-76
2023/12/24 00:35:40;;;;;;;0.60;0.38;;;8.10;99.90;;;;;;5003470;28;20118;-76
2023/12/24 00:38:06;;;;;;;0.40;0.30;;;8.10;99.90;;;;;;4999910;28;20013;-76
2023/12/24 00:40:33;;;;;;;2.50;0.22;;;8.00;99.90;;;;;;5001562;28;20037;-77
2023/12/24 00:42:59;;;;;;;0.40;0.20;;;8.00;99.90;;;;;;5002994;28;20109;-76
2023/12/24 00:45:24;;;;;;;0.35;0.20;;;8.10;99.90;;;;;;4980843;28;20062;-77
2023/12/24 00:47:50;;;;;;;0.90;0.45;;;8.00;99.90;;;;;;5009148;23;20121;-77
2023/12/24 00:50:19;;;;;;;1.25;0.30;;;8.10;99.90;;;;;;4993637;28;20057;-77
2023/12/24 00:52:46;;;;;;;0.65;0.20;;;8.10;99.90;;;;;;4994952;28;20347;-76
2023/12/24 00:55:12;;;;;;;1.17;0.20;;;8.10;99.90;;;;;;4996686;28;20019;-76
2023/12/24 00:57:37;;;;;;;0.20;0.20;;;8.10;99.90;;;;;;5004149;28;20022;-77
2023/12/24 01:00:06;;;;;;;0.75;0.30;;;8.10;99.90;;;;;;5005340;28;20054;-76
2023/12/24 01:02:35;;;;;;;0.73;0.30;;;8.10;99.90;;;;;;4994254;28;20018;-75
2023/12/24 01:05:04;;;;;;;0.73;0.35;;;8.10;99.90;;;;;;5003818;28;20034;-77
2023/12/24 01:07:30;;;;;;;2.25;0.40;;;8.10;99.90;;;;;;4996649;28;20089;-76
2023/12/24 01:09:58;;;;;;;0.30;0.20;;;8.10;99.90;;;;;;4996350;28;20027;-76
2023/12/24 01:12:27;;;;;;;0.20;0.10;;;8.10;99.90;;;;;;4998734;28;20062;-77
2023/12/24 01:14:52;;;;;;;0.60;0.28;;;8.10;99.90;;;;;;4987607;28;20388;-76
2023/12/24 01:17:18;;;;;;;0.40;0.20;;;8.10;99.90;;;;;;4979593;28;20088;-77
2023/12/24 01:19:46;;;;;;;0.22;0.17;;;8.10;99.90;;;;;;4993731;28;20038;-76
2023/12/24 01:22:12;;;;;;;0.30;0.28;;;8.10;99.90;;;;;;4994515;28;20034;-76
2023/12/24 01:24:37;;;;;;;0.45;0.30;;;8.10;99.90;;;;;;4993983;28;20034;-77
2023/12/24 01:27:06;;;;;;;0.95;0.47;;;8.10;99.90;;;;;;4996609;28;20026;-77
2023/12/24 01:29:32;;;;;;;0.60;0.30;;;8.10;99.90;;;;;;4999971;28;20359;-76
2023/12/24 01:31:57;;;;;;;0.82;0.30;;;8.10;99.90;;;;;;4992299;28;20029;-77
2023/12/24 01:34:23;;;;;;;1.48;0.20;;;8.10;99.90;;;;;;4992239;28;20027;-76
2023/12/24 01:36:48;;;;;;;2.08;0.40;;;8.10;99.90;;;;;;4995605;28;20022;-77
2023/12/24 01:39:19;;;;;;;0.60;0.40;;;8.20;99.90;;;;;;5000626;28;20050;-77
2023/12/24 01:41:46;;;;;;;0.63;0.25;;;8.10;99.90;;;;;;4994354;28;20512;-76
2023/12/24 01:44:17;;;;;;;0.43;0.30;;;8.10;99.90;;;;;;5001574;28;20036;-77
2023/12/24 01:46:45;;;;;;;1.35;0.30;;;8.20;99.90;;;;;;5003696;28;20024;-77
2023/12/24 01:49:13;;;;;;;0.20;0.20;;;8.20;99.90;;;;;;4996185;28;20059;-78
2023/12/24 01:51:39;;;;;;;0.75;0.40;;;8.20;99.90;;;;;;4999615;28;20062;-77
2023/12/24 01:54:11;;;;;;;0.57;0.20;;;8.20;99.90;;;;;;4998314;28;20029;-76
2023/12/24 01:56:43;;;;;;;0.35;0.20;;;8.20;99.90;;;;;;4996936;28;20019;-76
2023/12/24 01:59:10;;;;;;;0.95;0.50;;;8.20;99.90;;;;;;4985133;28;20050;-76
2023/12/24 02:01:43;;;;;;;0.20;0.20;;;8.20;99.90;;;;;;4999072;28;20034;-78
2023/12/24 02:04:16;;;;;;;2.45;0.30;;;8.20;99.90;;;;;;5004723;28;20026;-79
2023/12/24 02:06:44;;;;;;;2.55;0.30;;;8.20;99.90;;;;;;5004560;28;20540;-77
2023/12/24 02:09:10;;;;;;;0.57;0.20;;;8.20;99.90;;;;;;5002647;28;20477;-77
2023/12/24 02:11:35;;;;;;;0.65;0.40;;;8.20;99.90;;;;;;5004820;28;20022;-78
2023/12/24 02:14:02;;;;;;;0.38;0.30;;;8.20;99.90;;;;;;5002977;28;20030;-77
2023/12/24 02:16:33;;;;;;;0.75;0.20;;;8.20;99.90;;;;;;4997227;28;20018;-77
2023/12/24 02:18:59;;;;;;;0.50;0.20;;;8.20;99.90;;;;;;5001491;28;20122;-77
2023/12/24 02:21:24;;;;;;;0.30;0.30;;;8.20;99.90;;;;;;4996542;28;20089;-78
2023/12/24 02:23:56;;;;;;;0.45;0.30;;;8.20;99.90;;;;;;5001301;28;20014;-76
2023/12/24 02:26:48;;;;;;;0.35;0.20;;;8.20;99.90;;;;;;4999260;28;20023;-77
2023/12/24 02:29:20;;;;;;;0.10;0.10;;;8.20;99.90;;;;;;5002946;28;20116;-76
2023/12/24 02:31:47;;;;;;;0.70;0.30;;;8.20;99.90;;;;;;4999372;28;20120;-77
2023/12/24 02:34:16;;;;;;;0.63;0.20;;;8.20;99.90;;;;;;5002043;28;20026;-77
2023/12/24 02:36:45;;;;;;;1.08;0.22;;;8.20;99.90;;;;;;5000081;28;20382;-77
2023/12/24 02:39:12;;;;;;;0.40;0.25;;;8.20;99.90;;;;;;4981705;28;20038;-76
2023/12/24 02:41:37;;;;;;;0.50;0.28;;;8.20;99.90;;;;;;4998386;28;20030;-76
2023/12/24 02:44:03;;;;;;;0.80;0.20;;;8.20;99.90;;;;;;4985824;28;20030;-76
2023/12/24 02:46:29;;;;;;;0.75;0.40;;;8.20;99.90;;;;;;4995306;28;20030;-75
2023/12/24 02:48:55;;;;;;;0.40;0.30;;;8.20;99.90;;;;;;5001019;28;20388;-77
2023/12/24 02:51:23;;;;;;;0.35;0.22;;;8.20;99.90;;;;;;4993190;28;20034;-76
2023/12/24 02:53:51;;;;;;;0.85;0.40;;;8.20;99.90;;;;;;4998019;28;20423;-77
2023/12/24 02:56:20;;;;;;;0.73;0.30;;;8.20;99.90;;;;;;5003811;28;20153;-78
2023/12/24 02:58:51;;;;;;;0.30;0.20;;;8.20;99.90;;;;;;4984002;28;20065;-78
2023/12/24 03:01:17;;;;;;;1.27;0.22;;;8.20;99.90;;;;;;4997105;28;20853;-78
2023/12/24 03:03:42;;;;;;;0.20;0.20;;;8.20;99.90;;;;;;5003081;28;20093;-78
2023/12/24 03:06:08;;;;;;;0.30;0.20;;;8.30;99.90;;;;;;4999302;28;20400;-76
2023/12/24 03:08:43;;;;;;;0.60;0.30;;;8.30;99.90;;;;;;4998895;28;20034;-77
2023/12/24 03:11:08;;;;;;;1.13;0.30;;;8.30;99.90;;;;;;5002702;28;20492;-78
2023/12/24 03:13:43;;;;;;;0.40;0.30;;;8.30;99.90;;;;;;4998463;28;20038;-76
2023/12/24 03:16:08;;;;;;;0.32;0.30;;;8.20;99.90;;;;;;5001180;28;20515;-76
2023/12/24 03:18:34;;;;;;;1.02;0.30;;;8.20;99.90;;;;;;5000888;28;20022;-77
2023/12/24 03:21:03;;;;;;;0.52;0.40;;;8.20;99.90;;;;;;4998958;28;20030;-78
2023/12/24 03:23:37;;;;;;;1.05;0.55;;;8.30;99.90;;;;;;4997923;28;20034;-75
2023/12/24 03:26:06;;;;;;;3.15;0.43;;;8.20;99.90;;;;;;4995745;28;20452;-76
2023/12/24 03:28:38;;;;;;;0.45;0.25;;;8.30;99.90;;;;;;4995789;28;20046;-76
2023/12/24 03:31:16;;;;;;;1.75;0.30;;;8.30;99.90;;;;;;4992615;28;20026;-75
2023/12/24 03:33:44;;;;;;;0.20;0.20;;;8.30;99.90;;;;;;4997857;28;20027;-75
2023/12/24 03:36:10;;;;;;;0.65;0.30;;;8.30;99.90;;;;;;4997403;28;20097;-77
2023/12/24 03:38:36;;;;;;;0.20;0.20;;;8.20;99.90;;;;;;4992749;28;20528;-77
2023/12/24 03:41:02;;;;;;;1.05;0.65;;;8.20;99.90;;;;;;4997327;28;20097;-78
2023/12/24 03:43:31;;;;;;;0.95;0.60;;;8.20;99.90;;;;;;5003271;28;20563;-77
2023/12/24 03:45:57;;;;;;;0.57;0.35;;;8.20;99.90;;;;;;5000966;28;20022;-78
2023/12/24 03:48:23;;;;;;;0.40;0.30;;;8.20;99.90;;;;;;4996612;28;20080;-78
2023/12/24 03:50:48;;;;;;;1.50;0.30;;;8.20;99.90;;;;;;4997181;28;20046;-77
2023/12/24 03:53:14;;;;;;;1.05;0.30;;;8.30;99.90;;;;;;4997951;28;20034;-77
2023/12/24 03:55:42;;;;;;;0.35;0.30;;;8.30;99.90;;;;;;4997884;28;20030;-78
2023/12/24 03:58:08;;;;;;;0.45;0.38;;;8.20;99.90;;;;;;4997612;28;20034;-77
2023/12/24 04:00:37;;;;;;;0.80;0.30;;;8.20;99.90;;;;;;4996914;28;20026;-77
2023/12/24 04:03:03;;;;;;;0.40;0.30;;;8.20;99.90;;;;;;4982394;28;20036;-77
2023/12/24 04:05:34;;;;;;;0.45;0.30;;;8.30;99.90;;;;;;4998680;28;20026;-77
2023/12/24 04:08:04;;;;;;;0.60;0.30;;;8.30;99.90;;;;;;4995640;28;20084;-77
2023/12/24 04:10:30;;;;;;;2.45;0.30;;;8.20;99.90;;;;;;4987895;28;20022;-77
2023/12/24 04:13:00;;;;;;;0.22;0.20;;;8.20;99.90;;;;;;4979684;28;20388;-75
2023/12/24 04:15:26;;;;;;;0.80;0.30;;;8.20;99.90;;;;;;4992892;28;20517;-76
2023/12/24 04:17:54;;;;;;;0.55;0.20;;;8.30;99.90;;;;;;4998846;28;20026;-77
2023/12/24 04:20:23;;;;;;;0.30;0.20;;;8.20;99.90;;;;;;5001954;28;20465;-76
2023/12/24 04:22:54;;;;;;;0.50;0.38;;;8.20;99.90;;;;;;5002656;28;20027;-77
2023/12/24 04:25:29;;;;;;;2.22;1.25;;;8.20;99.90;;;;;;4996264;28;20485;-75
2023/12/24 04:27:54;;;;;;;0.80;0.25;;;8.20;99.90;;;;;;4979159;28;20396;-77
2023/12/24 04:30:20;;;;;;;1.25;0.40;;;8.20;99.90;;;;;;4994151;28;20027;-77
2023/12/24 04:32:46;;;;;;;0.75;0.30;;;8.20;99.90;;;;;;4976627;28;20022;-77
2023/12/24 04:35:14;;;;;;;0.47;0.20;;;8.20;99.90;;;;;;4999090;28;20180;-76
2023/12/24 04:37:46;;;;;;;1.08;0.50;;;8.20;99.90;;;;;;4994052;28;20061;-77
2023/12/24 04:40:11;;;;;;;0.50;0.38;;;8.20;99.90;;;;;;4996665;28;20026;-74
2023/12/24 04:42:37;;;;;;;0.40;0.38;;;8.20;99.90;;;;;;4996231;28;20046;-78
2023/12/24 04:45:11;;;;;;;1.50;0.28;;;8.20;99.90;;;;;;4994879;28;20034;-78
2023/12/24 04:47:37;;;;;;;0.75;0.40;;;8.20;99.90;;;;;;4990651;28;20030;-78
2023/12/24 04:50:06;;;;;;;0.93;0.30;;;8.20;99.90;;;;;;4999253;28;20450;-76
2023/12/24 04:52:38;;;;;;;1.42;0.30;;;8.30;99.90;;;;;;4983731;28;20030;-76
2023/12/24 04:55:05;;;;;;;0.47;0.25;;;8.30;99.90;;;;;;4994388;28;20481;-76
2023/12/24 04:57:31;;;;;;;0.68;0.30;;;8.30;99.90;;;;;;4996355;28;20030;-76
2023/12/24 05:00:00;;;;;;;1.13;0.52;;;8.30;99.90;;;;;;4980236;28;20063;-78
2023/12/24 05:02:33;;;;;;;1.15;0.50;;;8.30;99.90;;;;;;4982976;28;20033;-78
2023/12/24 05:05:03;;;;;;;0.95;0.30;;;8.30;99.90;;;;;;4998692;28;20029;-77
2023/12/24 05:07:34;;;;;;;0.93;0.40;;;8.30;99.90;;;;;;5001343;28;20026;-78
2023/12/24 05:10:07;;;;;;;0.80;0.30;;;8.30;99.90;;;;;;4977457;28;20023;-77
2023/12/24 05:12:39;;;;;;;1.00;0.30;;;8.30;99.90;;;;;;4979220;28;20073;-75
2023/12/24 05:15:17;;;;;;;5.07;0.40;;;8.30;99.90;;;;;;4994679;28;20053;-75
2023/12/24 05:17:45;;;;;;;0.55;0.30;;;8.30;99.90;;;;;;4991773;28;20117;-77
2023/12/24 05:20:20;;;;;;;1.35;0.47;;;8.30;99.90;;;;;;4996001;28;20056;-76
2023/12/24 05:22:48;;;;;;;0.40;0.40;;;8.30;99.90;;;;;;4979714;28;20034;-77
2023/12/24 05:25:17;;;;;;;1.00;0.40;;;8.30;99.90;;;;;;4994260;28;20110;-76
2023/12/24 05:27:55;;;;;;;0.25;0.22;;;8.30;99.90;;;;;;5001218;28;20097;-77
2023/12/24 05:30:20;;;;;;;0.60;0.30;;;8.30;99.90;;;;;;4993862;28;20037;-77
2023/12/24 05:32:55;;;;;;;0.52;0.30;;;8.30;99.90;;;;;;4996159;28;20109;-76
2023/12/24 05:35:24;;;;;;;0.70;0.30;;;8.30;99.90;;;;;;4991415;28;20110;-76
2023/12/24 05:37:49;;;;;;;1.27;0.35;;;8.30;99.90;;;;;;4976832;28;20118;-75
2023/12/24 05:40:18;;;;;;;0.63;0.30;;;8.30;99.90;;;;;;4993631;28;20041;-76
2023/12/24 05:42:44;;;;;;;0.25;0.22;;;8.30;99.90;;;;;;4999519;28;20018;-77
2023/12/24 05:45:19;;;;;;;1.08;0.35;;;8.30;99.90;;;;;;4980299;28;20022;-79
2023/12/24 05:47:50;;;;;;;0.57;0.40;;;8.30;99.90;;;;;;4977812;28;20513;-77
2023/12/24 05:50:22;;;;;;;0.82;0.40;;;8.30;99.90;;;;;;4999611;28;20034;-76
2023/12/24 05:52:48;;;;;;;0.40;0.32;;;8.30;99.90;;;;;;4996176;28;20045;-75
2023/12/24 05:55:13;;;;;;;0.40;0.40;;;8.30;99.90;;;;;;4997599;28;20054;-77
2023/12/24 05:57:39;;;;;;;2.17;0.43;;;8.30;99.90;;;;;;4998770;28;20019;-77
2023/12/24 06:00:11;;;;;;;0.65;0.30;;;8.30;99.90;;;;;;5001670;28;20022;-79
2023/12/24 06:02:40;;;;;;;0.55;0.40;;;8.30;99.90;;;;;;4995873;28;20027;-78
2023/12/24 06:05:09;;;;;;;0.77;0.30;;;8.30;99.90;;;;;;4998423;28;20026;-76
2023/12/24 06:07:35;;;;;;;0.80;0.40;;;8.30;99.90;;;;;;4995704;28;20023;-78
2023/12/24 06:10:10;;;;;;;1.40;0.50;;;8.30;99.90;;;;;;4992466;28;20072;-78
2023/12/24 06:12:51;;;;;;;1.00;0.45;;;8.30;99.90;;;;;;4995202;28;20389;-79
2023/12/24 06:15:17;;;;;;;0.52;0.30;;;8.40;99.90;;;;;;4996727;28;20049;-79
2023/12/24 06:17:43;;;;;;;0.30;0.30;;;8.40;99.90;;;;;;5000577;28;20026;-77
2023/12/24 06:20:09;;;;;;;1.52;0.50;;;8.30;99.90;;;;;;4977426;28;20054;-78
2023/12/24 06:22:34;;;;;;;2.15;0.55;;;8.40;99.90;;;;;;5001527;28;20030;-77
2023/12/24 06:25:06;;;;;;;1.45;0.38;;;8.40;99.90;;;;;;4995307;28;20033;-77
2023/12/24 06:27:36;;;;;;;0.50;0.28;;;8.40;99.90;;;;;;4994058;28;20552;-78
2023/12/24 06:30:05;;;;;;;0.30;0.30;;;8.40;99.90;;;;;;4980368;28;20031;-78
2023/12/24 06:32:41;;;;;;;0.70;0.40;;;8.40;99.90;;;;;;5000433;28;20026;-77
2023/12/24 06:35:08;;;;;;;1.92;0.35;;;8.40;99.90;;;;;;4980792;28;20030;-78
2023/12/24 06:37:36;;;;;;;2.50;0.30;;;8.40;99.90;;;;;;4984206;28;20047;-78
2023/12/24 06:40:03;;;;;;;0.43;0.30;;;8.40;99.90;;;;;;5009763;28;20036;-78
2023/12/24 06:42:29;;;;;;;1.65;0.30;;;8.40;99.90;;;;;;5009163;28;20037;-78
2023/12/24 06:44:55;;;;;;;1.02;0.32;;;8.40;99.90;;;;;;5010641;28;20038;-78
2023/12/24 06:47:23;;;;;;;2.55;0.43;;;8.40;99.90;;;;;;5016854;22;20051;-74
2023/12/24 06:49:49;;;;;;;0.90;0.40;;;8.50;99.90;;;;;;4972422;28;20035;-77
2023/12/24 06:52:19;;;;;;;2.67;0.32;;;8.50;99.90;;;;;;4969320;28;20027;-77
2023/12/24 06:54:45;;;;;;;0.70;0.40;;;8.40;99.90;;;;;;4967006;28;20031;-77
2023/12/24 06:57:20;;;;;;;0.28;0.20;;;8.80;99.90;;;;;;4969060;28;20041;-76
2023/12/24 06:59:54;;;;;;;0.47;0.20;;;9.00;99.90;;;;;;4969895;28;20034;-76
2023/12/24 07:02:20;;;;;;;0.50;0.28;;;9.30;99.90;;;;;;4970823;28;20081;-76
2023/12/24 07:04:48;;;;;;;0.20;0.20;;;9.50;99.90;;;;;;4968944;28;20453;-76
2023/12/24 07:07:14;;;;;;;0.20;0.10;;;9.60;99.90;;;;;;4956726;28;20043;-76
2023/12/24 07:09:40;;;;;;;0.40;0.20;;;9.70;99.90;;;;;;4967146;28;20035;-77
2023/12/24 07:12:08;;;;;;;0.35;0.28;;;9.80;99.90;;;;;;4951347;28;20031;-77
2023/12/24 07:14:40;;;;;;;0.45;0.17;;;9.70;99.90;;;;;;4962427;28;20038;-76
2023/12/24 07:17:06;;;;;;;0.20;0.20;;;9.60;99.90;;;;;;4968888;28;20545;-78
2023/12/24 07:19:34;;;;;;;0.38;0.10;;;9.40;99.90;;;;;;4963974;28;20118;-76
2023/12/24 07:22:03;;;;;;;0.47;0.25;;;9.40;99.90;;;;;;4969229;28;20050;-76
2023/12/24 07:24:29;;;;;;;0.25;0.20;;;9.30;99.90;;;;;;4964448;28;20034;-76
2023/12/24 07:26:54;;;;;;;0.35;0.20;;;9.10;99.90;;;;;;4963127;28;20034;-76
2023/12/24 07:29:20;;;;;;;0.10;0.10;;;9.10;99.90;;;;;;4964252;28;20074;-76
2023/12/24 07:31:47;;;;;;;0.47;0.10;;;9.00;99.90;;;;;;4960586;28;20355;-75
2023/12/24 07:34:12;;;;;;;0.30;0.13;;;9.00;99.90;;;;;;4965940;28;20018;-76
2023/12/24 07:36:38;;;;;;;0.15;0.15;;;9.00;99.90;;;;;;4964844;28;20394;-78
2023/12/24 07:39:04;;;;;;;0.20;0.20;;;8.90;99.90;;;;;;4968607;28;20029;-76
2023/12/24 07:41:31;;;;;;;0.98;0.30;;;8.90;99.90;;;;;;4969865;28;20023;-76
2023/12/24 07:43:56;;;;;;;0.10;0.10;;;8.90;99.90;;;;;;4954642;28;20027;-77
2023/12/24 07:46:22;;;;;;;0.28;0.15;;;8.90;99.90;;;;;;4952803;28;20445;-74
2023/12/24 07:48:47;;;;;;;0.50;0.13;;;8.90;99.90;;;;;;4967443;28;20042;-77
2023/12/24 07:51:13;;;;;;;0.73;0.38;;;8.90;99.90;;;;;;4965285;28;20034;-78
2023/12/24 07:53:39;;;;;;;0.20;0.10;;;8.90;99.90;;;;;;4964721;28;20031;-78
2023/12/24 07:56:06;;;;;;;0.65;0.30;;;9.00;99.90;;;;;;4961535;28;20023;-78
2023/12/24 07:58:31;;;;;;;0.57;0.30;;;9.00;99.90;;;;;;4967045;28;20070;-78
2023/12/24 08:00:57;;;;;;;0.20;0.20;;;9.00;99.90;;;;;;4962814;28;20035;-77
2023/12/24 08:03:22;;;;;;;0.30;0.13;;;9.00;99.90;;;;;;4965531;28;20035;-77
2023/12/24 08:05:48;;;;;;;0.20;0.20;;;9.00;99.90;;;;;;4967415;28;20395;-77
2023/12/24 08:08:14;;;;;;;0.28;0.20;;;9.00;99.90;;;;;;4953628;28;20031;-77
2023/12/24 08:10:39;;;;;;;1.52;0.20;;;9.00;99.90;;;;;;4969173;28;20027;-78
2023/12/24 08:13:05;;;;;;;0.30;0.20;;;9.00;99.90;;;;;;4970660;28;20050;-77
2023/12/24 08:15:30;;;;;;;0.75;0.30;;;9.00;99.90;;;;;;4965670;28;20054;-77
2023/12/24 08:17:56;;;;;;;0.50;0.20;;;9.00;99.90;;;;;;4967668;28;20077;-76
2023/12/24 08:20:24;;;;;;;0.20;0.10;;;9.00;99.90;;;;;;4967733;28;20509;-76
2023/12/24 08:22:53;;;;;;;0.75;0.20;;;9.00;99.90;;;;;;4966311;28;20067;-77
2023/12/24 08:25:18;;;;;;;0.20;0.20;;;9.10;99.90;;;;;;4966746;28;20058;-76
2023/12/24 08:27:44;;;;;;;1.48;0.10;;;9.00;99.90;;;;;;4966924;28;20117;-77
2023/12/24 08:30:13;;;;;;;0.22;0.20;;;9.10;99.90;;;;;;4956330;28;20082;-76
2023/12/24 08:32:38;;;;;;;0.28;0.20;;;9.10;99.90;;;;;;4967182;28;20038;-76
2023/12/24 08:35:04;;;;;;;0.20;0.20;;;9.10;99.90;;;;;;4966801;28;20023;-76
2023/12/24 08:37:30;;;;;;;0.35;0.10;;;9.10;99.90;;;;;;4967439;28;20033;-77
2023/12/24 08:39:59;;;;;;;0.55;0.10;;;9.10;99.90;;;;;;4966677;28;20037;-76
2023/12/24 08:42:24;;;;;;;0.40;0.20;;;9.20;99.90;;;;;;4968405;28;20026;-76
2023/12/24 08:44:50;;;;;;;2.15;0.40;;;9.20;99.90;;;;;;4949216;28;20050;-77
2023/12/24 08:47:15;;;;;;;0.60;0.22;;;9.20;99.90;;;;;;4963404;28;20050;-76
2023/12/24 08:49:41;;;;;;;0.20;0.20;;;9.20;99.90;;;;;;4960603;28;20034;-77
2023/12/24 08:52:06;;;;;;;0.57;0.17;;;9.30;99.90;;;;;;4964010;28;20030;-77
2023/12/24 08:54:41;;;;;;;0.60;0.30;;;9.30;99.90;;;;;;4936901;28;20122;-77
2023/12/24 08:57:07;;;;;;;0.50;0.20;;;9.30;99.90;;;;;;4966393;28;20098;-77
2023/12/24 08:59:33;;;;;;;0.20;0.20;;;9.30;99.90;;;;;;4971045;28;20198;-77
2023/12/24 09:01:58;;;;;;;0.10;0.10;;;9.30;99.90;;;;;;4963528;28;20043;-77
2023/12/24 09:04:24;;;;;;;0.32;0.20;;;9.40;99.90;;;;;;4966894;28;20038;-76
2023/12/24 09:06:53;;;;;;;0.38;0.30;;;9.30;99.90;;;;;;4963583;28;20035;-77
2023/12/24 09:09:18;;;;;;;0.90;0.20;;;9.30;99.90;;;;;;4966350;28;20077;-77
2023/12/24 09:11:44;;;;;;;0.47;0.35;;;9.40;99.90;;;;;;4968462;28;20027;-77
2023/12/24 09:14:13;;;;;;;0.20;0.10;;;9.40;99.90;;;;;;4964735;28;20122;-76
2023/12/24 09:16:38;;;;;;;0.28;0.20;;;9.40;99.90;;;;;;4950158;28;20070;-78
2023/12/24 09:19:04;;;;;;;0.28;0.10;;;9.50;99.90;;;;;;4964845;28;20039;-77
2023/12/24 09:21:32;;;;;;;0.10;0.10;;;9.50;99.90;;;;;;4966626;28;20561;-77
2023/12/24 09:24:00;;;;;;;0.63;0.20;;;9.50;99.90;;;;;;4964418;28;20445;-77
2023/12/24 09:26:26;;;;;;;0.20;0.10;;;9.50;99.90;;;;;;4965842;28;20015;-76
2023/12/24 09:28:58;;;;;;;0.57;0.25;;;9.50;99.90;;;;;;4967230;28;20046;-77
2023/12/24 09:31:23;;;;;;;0.40;0.20;;;9.60;99.90;;;;;;4967401;28;20081;-75
2023/12/24 09:33:49;;;;;;;0.38;0.28;;;9.60;99.90;;;;;;4964394;28;20031;-76
2023/12/24 09:36:14;;;;;;;0.85;0.30;;;9.60;99.90;;;;;;4966556;28;20557;-75
2023/12/24 09:38:43;;;;;;;0.43;0.20;;;9.60;99.90;;;;;;4951050;28;20086;-75
2023/12/24 09:41:09;;;;;;;0.35;0.20;;;9.70;99.90;;;;;;4964184;28;20028;-76
2023/12/24 09:43:37;;;;;;;0.50;0.28;;;9.70;99.90;;;;;;4966133;28;20093;-75
2023/12/24 09:46:06;;;;;;;0.70;0.20;;;9.70;99.90;;;;;;4962962;28;21040;-75
2023/12/24 09:48:34;;;;;;;0.20;0.20;;;9.70;99.90;;;;;;4949663;28;20045;-75
2023/12/24 09:51:08;;;;;;;0.30;0.30;;;9.80;99.90;;;;;;4959054;28;20532;-75
2023/12/24 09:53:33;;;;;;;;;;;9.80;99.90;;;;;;4956901;28;20027;-75
2023/12/24 09:55:59;;;;;;;0.40;0.20;;;9.80;99.90;;;;;;4957714;28;20388;-75
2023/12/24 09:58:25;;;;;;;0.40;0.20;;;9.90;99.90;;;;;;4965063;28;20096;-74
2023/12/24 10:00:53;;;;;;;0.30;0.10;;;9.90;99.90;;;;;;4967359;28;20039;-74
2023/12/24 10:03:19;;;;;;;0.73;0.30;;;9.90;99.90;;;;;;4966801;28;20089;-75
2023/12/24 10:06:04;;;;;;;0.57;0.30;;;9.90;99.90;;;;;;4965775;28;20097;-77
2023/12/24 10:08:30;;;;;;;0.47;0.20;;;9.90;99.90;;;;;;4966999;28;20081;-77
2023/12/24 10:11:16;;;;;;;0.30;0.30;;;9.90;99.90;;;;;;4968223;28;20022;-74
2023/12/24 10:13:57;;;;;;;0.55;0.25;;;10.00;99.90;;;;;;4965025;28;20030;-76
2023/12/24 10:16:22;;;;;;;0.85;0.30;;;10.00;99.90;;;;;;4970300;28;20039;-77
2023/12/24 10:18:54;;;;;;;0.85;0.30;;;9.90;99.90;;;;;;4969824;28;20039;-76
2023/12/24 10:21:28;;;;;;;0.98;0.40;;;9.90;99.90;;;;;;4968184;28;20541;-76
2023/12/24 10:24:04;;;;;;;0.90;0.45;;;10.00;99.90;;;;;;4968155;28;20410;-75
2023/12/24 10:26:32;;;;;;;0.77;0.30;;;10.00;99.90;;;;;;4967959;28;20023;-76
2023/12/24 10:28:58;;;;;;;0.70;0.30;;;10.00;99.90;;;;;;4965947;28;20133;-77
2023/12/24 10:31:24;;;;;;;0.73;0.22;;;9.90;99.90;;;;;;4967390;28;20560;-76
2023/12/24 10:33:59;;;;;;;0.52;0.30;;;10.00;99.90;;;;;;4958077;28;20318;-76
2023/12/24 10:36:24;;;;;;;0.50;0.30;;;10.00;99.90;;;;;;4961294;28;20034;-76
2023/12/24 10:38:50;;;;;;;3.67;0.30;;;10.00;99.90;;;;;;4955850;28;20034;-76
2023/12/24 10:41:15;;;;;;;0.40;0.20;;;10.00;99.90;;;;;;4967876;28;20033;-76
2023/12/24 10:43:41;;;;;;;0.50;0.30;;;10.10;99.90;;;;;;4960229;28;20628;-76
2023/12/24 10:46:07;;;;;;;0.50;0.30;;;10.10;99.90;;;;;;4966175;28;20441;-74
2023/12/24 10:48:32;;;;;;;0.57;0.40;;;10.10;99.90;;;;;;4969478;28;20061;-76
2023/12/24 10:50:58;;;;;;;0.85;0.40;;;10.10;99.90;;;;;;4968666;28;20105;-76
2023/12/24 10:53:24;;;;;;;0.95;0.30;;;10.10;99.90;;;;;;4968710;28;20030;-76
2023/12/24 10:56:12;;;;;;;0.40;0.28;;;10.10;99.90;;;;;;4967361;28;20281;-76
2023/12/24 10:59:08;;;;;;;0.73;0.30;;;10.20;99.90;;;;;;4967363;28;20023;-76
2023/12/24 11:01:34;;;;;;;0.85;0.40;;;10.20;99.90;;;;;;4967511;28;20031;-75
2023/12/24 11:04:05;;;;;;;0.35;0.20;;;10.20;99.90;;;;;;4964801;28;20077;-76
2023/12/24 11:06:40;;;;;;;0.57;0.32;;;10.20;99.90;;;;;;4968389;28;20046;-76
2023/12/24 11:09:08;;;;;;;0.55;0.35;;;10.20;99.90;;;;;;4964074;28;20078;-76
2023/12/24 11:12:01;;;;;;;1.17;0.20;;;10.20;99.90;;;;;;4968029;28;20041;-76
2023/12/24 11:14:45;;;;;;;0.40;0.20;;;10.30;99.90;;;;;;4965243;28;20489;-76
2023/12/24 11:17:37;;;;;;;1.42;0.30;;;10.30;99.90;;;;;;4963169;28;20563;-77
2023/12/24 11:20:18;;;;;;;0.52;0.20;;;10.30;99.90;;;;;;4967148;28;20023;-77
2023/12/24 11:23:06;;;;;;;0.85;0.40;;;10.40;99.90;;;;;;4969528;28;20375;-77
2023/12/24 11:25:54;;;;;;;0.40;0.30;;;10.40;99.90;;;;;;4970114;28;20023;-77
2023/12/24 11:28:23;;;;;;;3.47;0.30;;;10.40;99.90;;;;;;4967147;28;20041;-77
2023/12/24 11:30:58;;;;;;;0.52;0.20;;;10.50;99.90;;;;;;4966248;28;20431;-76
2023/12/24 11:33:35;;;;;;;0.55;0.20;;;10.50;99.90;;;;;;4969733;28;20027;-76
2023/12/24 11:36:11;;;;;;;0.20;0.20;;;10.50;99.90;;;;;;4968019;28;20363;-76
2023/12/24 11:38:37;;;;;;;0.60;0.30;;;10.50;99.90;;;;;;4967678;28;20481;-77
2023/12/24 11:41:22;;;;;;;0.85;0.40;;;10.60;99.90;;;;;;4966264;28;20026;-75
2023/12/24 11:43:56;;;;;;;0.52;0.35;;;10.60;99.90;;;;;;4962586;28;20023;-75
2023/12/24 11:46:23;;;;;;;0.40;0.20;;;10.60;99.90;;;;;;4964762;28;20030;-75
2023/12/24 11:48:49;;;;;;;0.43;0.32;;;10.60;99.90;;;;;;4963957;28;20032;-75
2023/12/24 11:51:15;;;;;;;0.30;0.30;;;10.60;99.90;;;;;;4966022;28;20037;-75
2023/12/24 11:53:42;;;;;;;0.45;0.20;;;10.60;99.90;;;;;;4966270;28;20028;-76
2023/12/24 11:56:18;;;;;;;1.25;0.30;;;10.70;99.90;;;;;;4966730;28;20081;-76
2023/12/24 11:58:50;;;;;;;0.50;0.30;;;10.70;99.90;;;;;;4967069;28;20019;-74
2023/12/24 12:01:27;;;;;;;0.82;0.30;;;10.70;99.90;;;;;;4965647;28;20046;-75
2023/12/24 12:04:01;;;;;;;0.93;0.40;;;10.70;99.90;;;;;;4962091;28;20027;-76
2023/12/24 12:06:28;;;;;;;0.57;0.43;;;10.70;99.90;;;;;;4964260;28;20158;-74
2023/12/24 12:08:58;;;;;;;0.50;0.38;;;10.70;99.90;;;;;;4957197;28;20054;-74
2023/12/24 12:11:27;;;;;;;0.77;0.45;;;10.70;99.90;;;;;;4967210;28;20027;-76
2023/12/24 12:13:52;;;;;;;1.13;0.40;;;10.70;99.90;;;;;;4958972;28;20030;-76
2023/12/24 12:16:19;;;;;;;0.70;0.40;;;10.70;99.90;;;;;;4965737;28;20031;-76
2023/12/24 12:18:51;;;;;;;1.13;0.43;;;10.70;99.90;;;;;;4962157;28;20031;-77
2023/12/24 12:21:16;;;;;;;0.85;0.45;;;10.70;99.90;;;;;;4959413;28;20030;-76
2023/12/24 12:23:45;;;;;;;3.13;0.85;;;10.70;99.90;;;;;;4959585;28;20031;-76
2023/12/24 12:26:20;;;;;;;0.98;0.40;;;10.70;99.90;;;;;;4962308;28;20409;-75
2023/12/24 12:28:52;;;;;;;0.40;0.30;;;10.70;99.90;;;;;;4956180;28;20038;-75
2023/12/24 12:31:17;;;;;;;0.70;0.47;;;10.70;99.90;;;;;;4958786;28;21386;-76
2023/12/24 12:33:43;;;;;;;0.60;0.32;;;10.70;99.90;;;;;;4958169;28;20070;-76
2023/12/24 12:36:08;;;;;;;1.02;0.50;;;10.70;99.90;;;;;;4959360;28;20097;-76
2023/12/24 12:38:43;;;;;;;0.77;0.30;;;10.70;99.90;;;;;;4959361;28;20033;-75
2023/12/24 12:41:10;;;;;;;0.50;0.20;;;10.70;99.90;;;;;;4964745;28;20066;-75
2023/12/24 12:43:35;;;;;;;0.40;0.30;;;10.70;99.90;;;;;;4965206;28;20069;-75
2023/12/24 12:46:01;;;;;;;0.32;0.22;;;10.70;99.90;;;;;;4963950;28;20070;-76
2023/12/24 12:48:26;;;;;;;0.70;0.40;;;10.70;99.90;;;;;;4975577;23;20035;-75
2023/12/24 12:50:56;;;;;;;0.68;0.50;;;10.70;99.90;;;;;;4988435;28;20388;-76
2023/12/24 12:53:25;;;;;;;1.00;0.50;;;10.60;99.90;;;;;;4996705;28;20084;-75
2023/12/24 12:56:02;;;;;;;1.00;0.30;;;10.60;99.90;;;;;;4996888;28;20023;-76
2023/12/24 12:58:29;;;;;;;0.50;0.30;;;10.60;99.90;;;;;;4995247;28;20388;-76
2023/12/24 13:00:58;;;;;;;1.75;0.30;;;10.60;99.90;;;;;;4994426;28;20485;-76
2023/12/24 13:03:27;;;;;;;0.65;0.40;;;10.60;99.90;;;;;;4994039;28;20156;-77